CNH104 UKRB-UKDE
Flight info
| Callsign | CNH104 |
|---|---|
| Flight time | N/A |
| Altitude | 18000 |
| Route | ODNIV |
| Aircraft | AN24/M-SDFG/S |
Departure
| Time | N/A |
|---|---|
| Airport | UKRB |
Arrival
| Time | 2026-05-01 13:18 |
|---|---|
| Airport | Zaporizhzhia International Airport (UKDE) |
| Time | Latitude | Longitude | Altitude | Speed | Heading |
|---|---|---|---|---|---|
| 2026-05-01 12:10 | 51.21515 | 32.45734 | 454 ft | 0 kts | 360° |
| 2026-05-01 12:30 | 51.21648 | 32.45709 | 450 ft | 10 kts | 343° |
| 2026-05-01 12:30 | 51.21795 | 32.45584 | 446 ft | 32 kts | 325° |
| 2026-05-01 12:30 | 51.21972 | 32.45339 | 439 ft | 35 kts | 298° |
| 2026-05-01 12:31 | 51.21981 | 32.45211 | 439 ft | 2 kts | 186° |
| 2026-05-01 12:31 | 51.21914 | 32.45343 | 440 ft | 25 kts | 118° |
| 2026-05-01 12:31 | 51.21764 | 32.45615 | 447 ft | 41 kts | 152° |
| 2026-05-01 12:31 | 51.21556 | 32.45824 | 454 ft | 15 kts | 183° |
| 2026-05-01 12:32 | 51.21505 | 32.45887 | 456 ft | 0 kts | 146° |
| 2026-05-01 12:33 | 51.21493 | 32.45899 | 456 ft | 9 kts | 147° |
| 2026-05-01 12:34 | 51.21422 | 32.45975 | 459 ft | 22 kts | 144° |
| 2026-05-01 12:34 | 51.21163 | 32.46250 | 460 ft | 68 kts | 150° |
| 2026-05-01 12:34 | 51.20643 | 32.46800 | 451 ft | 114 kts | 145° |
| 2026-05-01 12:34 | 51.19849 | 32.47623 | 613 ft | 150 kts | 151° |
| 2026-05-01 12:35 | 51.18891 | 32.48433 | 1063 ft | 159 kts | 153° |
| 2026-05-01 12:35 | 51.17785 | 32.49256 | 1222 ft | 192 kts | 157° |
| 2026-05-01 12:35 | 51.16517 | 32.50098 | 1688 ft | 200 kts | 158° |
| 2026-05-01 12:35 | 51.15272 | 32.51035 | 2323 ft | 198 kts | 154° |
| 2026-05-01 12:36 | 51.14072 | 32.52021 | 3031 ft | 191 kts | 153° |
| 2026-05-01 12:36 | 51.12932 | 32.52966 | 3705 ft | 187 kts | 154° |
| 2026-05-01 12:36 | 51.11717 | 32.53859 | 4150 ft | 197 kts | 161° |
| 2026-05-01 12:36 | 51.10460 | 32.54752 | 4707 ft | 199 kts | 156° |
| 2026-05-01 12:37 | 51.09235 | 32.55782 | 5213 ft | 203 kts | 149° |
| 2026-05-01 12:37 | 51.08021 | 32.57008 | 5701 ft | 206 kts | 147° |
| 2026-05-01 12:37 | 51.06879 | 32.58250 | 6472 ft | 196 kts | 146° |
| 2026-05-01 12:37 | 51.05749 | 32.59447 | 6933 ft | 202 kts | 148° |
| 2026-05-01 12:38 | 51.04551 | 32.60735 | 7322 ft | 212 kts | 146° |
| 2026-05-01 12:38 | 51.03346 | 32.62050 | 7854 ft | 212 kts | 149° |
| 2026-05-01 12:38 | 51.02100 | 32.63339 | 8343 ft | 215 kts | 147° |
| 2026-05-01 12:38 | 51.00842 | 32.64623 | 8805 ft | 218 kts | 150° |
| 2026-05-01 12:39 | 50.99478 | 32.65950 | 8839 ft | 241 kts | 149° |
| 2026-05-01 12:39 | 50.98049 | 32.67452 | 9182 ft | 245 kts | 147° |
| 2026-05-01 12:39 | 50.96701 | 32.68848 | 9997 ft | 228 kts | 150° |
| 2026-05-01 12:39 | 50.95384 | 32.70238 | 10400 ft | 233 kts | 147° |
| 2026-05-01 12:40 | 50.93986 | 32.71656 | 10640 ft | 243 kts | 148° |
| 2026-05-01 12:40 | 50.92554 | 32.73167 | 11002 ft | 247 kts | 147° |
| 2026-05-01 12:40 | 50.91113 | 32.74565 | 11477 ft | 244 kts | 149° |
| 2026-05-01 12:40 | 50.89672 | 32.75957 | 11915 ft | 243 kts | 148° |
| 2026-05-01 12:41 | 50.88252 | 32.77393 | 12371 ft | 242 kts | 146° |
| 2026-05-01 12:41 | 50.86872 | 32.78934 | 12813 ft | 241 kts | 147° |
| 2026-05-01 12:41 | 50.85484 | 32.80342 | 13378 ft | 235 kts | 148° |
| 2026-05-01 12:41 | 50.84099 | 32.81727 | 13717 ft | 239 kts | 147° |
| 2026-05-01 12:42 | 50.82706 | 32.83177 | 14166 ft | 238 kts | 148° |
| 2026-05-01 12:42 | 50.81317 | 32.84618 | 14524 ft | 240 kts | 147° |
| 2026-05-01 12:42 | 50.79928 | 32.86073 | 14904 ft | 240 kts | 147° |
| 2026-05-01 12:42 | 50.78565 | 32.87498 | 15507 ft | 229 kts | 147° |
| 2026-05-01 12:43 | 50.77331 | 32.88768 | 16303 ft | 210 kts | 149° |
| 2026-05-01 12:43 | 50.76148 | 32.90033 | 16884 ft | 202 kts | 145° |
| 2026-05-01 12:43 | 50.74997 | 32.91296 | 17339 ft | 201 kts | 147° |
| 2026-05-01 12:43 | 50.73828 | 32.92492 | 17695 ft | 206 kts | 149° |
| 2026-05-01 12:44 | 50.72622 | 32.93711 | 18189 ft | 199 kts | 148° |
| 2026-05-01 12:44 | 50.71423 | 32.94939 | 18276 ft | 219 kts | 149° |
| 2026-05-01 12:44 | 50.68664 | 32.97726 | 18405 ft | 248 kts | 149° |
| 2026-05-01 12:45 | 50.67793 | 32.98588 | 18353 ft | 259 kts | 149° |
| 2026-05-01 12:45 | 50.66862 | 32.99519 | 18293 ft | 268 kts | 149° |
| 2026-05-01 12:45 | 50.65262 | 33.01143 | 18316 ft | 277 kts | 148° |
| 2026-05-01 12:46 | 50.63628 | 33.02815 | 18385 ft | 283 kts | 148° |
| 2026-05-01 12:46 | 50.61935 | 33.04545 | 18323 ft | 292 kts | 148° |
| 2026-05-01 12:46 | 50.60223 | 33.06291 | 18324 ft | 296 kts | 148° |
| 2026-05-01 12:46 | 50.58487 | 33.08057 | 18329 ft | 299 kts | 148° |
| 2026-05-01 12:47 | 50.56725 | 33.09845 | 18325 ft | 302 kts | 148° |
| 2026-05-01 12:47 | 50.54953 | 33.11642 | 18323 ft | 303 kts | 148° |
| 2026-05-01 12:47 | 50.53186 | 33.13434 | 18318 ft | 305 kts | 148° |
| 2026-05-01 12:47 | 50.51392 | 33.15248 | 18329 ft | 305 kts | 148° |
| 2026-05-01 12:48 | 50.49606 | 33.17055 | 18317 ft | 306 kts | 148° |
| 2026-05-01 12:48 | 50.47810 | 33.18870 | 18331 ft | 306 kts | 148° |
| 2026-05-01 12:48 | 50.46023 | 33.20679 | 18315 ft | 307 kts | 148° |
| 2026-05-01 12:48 | 50.44245 | 33.22475 | 18332 ft | 306 kts | 148° |
| 2026-05-01 12:49 | 50.42440 | 33.24298 | 18316 ft | 307 kts | 148° |
| 2026-05-01 12:49 | 50.40637 | 33.26120 | 18330 ft | 307 kts | 148° |
| 2026-05-01 12:49 | 50.38832 | 33.27943 | 18314 ft | 308 kts | 148° |
| 2026-05-01 12:49 | 50.37049 | 33.29743 | 18322 ft | 307 kts | 148° |
| 2026-05-01 12:50 | 50.35250 | 33.31556 | 18304 ft | 308 kts | 148° |
| 2026-05-01 12:50 | 50.33437 | 33.33382 | 18308 ft | 308 kts | 148° |
| 2026-05-01 12:50 | 50.31627 | 33.35206 | 18289 ft | 308 kts | 148° |
| 2026-05-01 12:50 | 50.29838 | 33.37009 | 18290 ft | 308 kts | 148° |
| 2026-05-01 12:51 | 50.28041 | 33.38819 | 18270 ft | 308 kts | 148° |
| 2026-05-01 12:51 | 50.26232 | 33.40639 | 18275 ft | 308 kts | 148° |
| 2026-05-01 12:51 | 50.22631 | 33.44264 | 18268 ft | 308 kts | 148° |
| 2026-05-01 12:52 | 50.20818 | 33.46088 | 18258 ft | 308 kts | 148° |
| 2026-05-01 12:52 | 50.17226 | 33.49701 | 18256 ft | 308 kts | 148° |
| 2026-05-01 12:52 | 50.15429 | 33.51508 | 18271 ft | 307 kts | 148° |
| 2026-05-01 12:53 | 50.11740 | 33.55059 | 18088 ft | 314 kts | 148° |
| 2026-05-01 12:53 | 50.09871 | 33.56812 | 18021 ft | 316 kts | 148° |
| 2026-05-01 12:53 | 50.07982 | 33.58588 | 18015 ft | 315 kts | 148° |
| 2026-05-01 12:54 | 50.06116 | 33.60344 | 18037 ft | 314 kts | 148° |
| 2026-05-01 12:54 | 50.02383 | 33.63856 | 18043 ft | 313 kts | 148° |
| 2026-05-01 12:54 | 50.00537 | 33.65593 | 18022 ft | 313 kts | 149° |
| 2026-05-01 12:55 | 49.96820 | 33.69128 | 18039 ft | 312 kts | 149° |
| 2026-05-01 12:55 | 49.94958 | 33.70896 | 18027 ft | 313 kts | 149° |
| 2026-05-01 12:55 | 49.93118 | 33.72642 | 18045 ft | 312 kts | 149° |
| 2026-05-01 12:56 | 49.91281 | 33.74383 | 18025 ft | 313 kts | 149° |
| 2026-05-01 12:56 | 49.89415 | 33.76150 | 18037 ft | 312 kts | 149° |
| 2026-05-01 12:56 | 49.87556 | 33.77898 | 17964 ft | 314 kts | 149° |
| 2026-05-01 12:56 | 49.85700 | 33.79638 | 18056 ft | 311 kts | 149° |
| 2026-05-01 12:57 | 49.83842 | 33.81381 | 18044 ft | 312 kts | 149° |
| 2026-05-01 12:57 | 49.71180 | 33.93279 | 18153 ft | 312 kts | 149° |
| 2026-05-01 12:57 | 49.66649 | 33.97527 | 17972 ft | 311 kts | 148° |
| 2026-05-01 12:58 | 49.64814 | 33.99249 | 18098 ft | 308 kts | 148° |
| 2026-05-01 12:58 | 49.62982 | 34.00970 | 18030 ft | 311 kts | 148° |
| 2026-05-01 12:58 | 49.61284 | 34.02565 | 17997 ft | 312 kts | 148° |
| 2026-05-01 12:59 | 49.11573 | 34.48871 | 18585 ft | 310 kts | 148° |
| 2026-05-01 12:59 | 48.81581 | 34.76629 | 17672 ft | 313 kts | 148° |
| 2026-05-01 12:59 | 48.65208 | 34.91799 | 18067 ft | 317 kts | 148° |
| 2026-05-01 13:00 | 48.61459 | 34.95274 | 17985 ft | 317 kts | 148° |
| 2026-05-01 13:00 | 48.59576 | 34.97015 | 18055 ft | 314 kts | 148° |
| 2026-05-01 13:01 | 48.55856 | 35.00453 | 17987 ft | 315 kts | 148° |
| 2026-05-01 13:01 | 48.54006 | 35.02163 | 18067 ft | 312 kts | 148° |
| 2026-05-01 13:01 | 48.50282 | 35.05603 | 17992 ft | 314 kts | 148° |
| 2026-05-01 13:02 | 48.48416 | 35.07327 | 18077 ft | 311 kts | 148° |
| 2026-05-01 13:07 | 48.16124 | 35.43735 | 9535 ft | 283 kts | 178° |
| 2026-05-01 13:07 | 48.14152 | 35.43732 | 8628 ft | 288 kts | 180° |
| 2026-05-01 13:07 | 48.12175 | 35.43737 | 7704 ft | 292 kts | 179° |
| 2026-05-01 13:08 | 48.10132 | 35.43726 | 6748 ft | 294 kts | 180° |
| 2026-05-01 13:08 | 48.08111 | 35.43687 | 5815 ft | 295 kts | 180° |
| 2026-05-01 13:08 | 48.06069 | 35.43639 | 4883 ft | 294 kts | 180° |
| 2026-05-01 13:08 | 48.04037 | 35.43592 | 3965 ft | 292 kts | 180° |
| 2026-05-01 13:09 | 48.02015 | 35.43546 | 3058 ft | 290 kts | 180° |
| 2026-05-01 13:09 | 48.00098 | 35.43504 | 2957 ft | 260 kts | 180° |
| 2026-05-01 13:09 | 47.98380 | 35.43464 | 2888 ft | 236 kts | 180° |
| 2026-05-01 13:09 | 47.96817 | 35.43428 | 2860 ft | 216 kts | 180° |
| 2026-05-01 13:10 | 47.95376 | 35.43393 | 2882 ft | 196 kts | 180° |
| 2026-05-01 13:10 | 47.94075 | 35.43361 | 2899 ft | 179 kts | 180° |
| 2026-05-01 13:10 | 47.92867 | 35.43328 | 2906 ft | 170 kts | 180° |
| 2026-05-01 13:10 | 47.91694 | 35.43294 | 2915 ft | 169 kts | 180° |
| 2026-05-01 13:11 | 47.90513 | 35.43262 | 2919 ft | 167 kts | 180° |
| 2026-05-01 13:11 | 47.89357 | 35.43231 | 2896 ft | 168 kts | 180° |
| 2026-05-01 13:11 | 47.88179 | 35.43203 | 2880 ft | 167 kts | 180° |
| 2026-05-01 13:11 | 47.87034 | 35.43177 | 2921 ft | 164 kts | 180° |
| 2026-05-01 13:12 | 47.85907 | 35.42953 | 2893 ft | 165 kts | 206° |
| 2026-05-01 13:12 | 47.85193 | 35.41720 | 2917 ft | 158 kts | 252° |
| 2026-05-01 13:12 | 47.84895 | 35.40216 | 2988 ft | 149 kts | 242° |
| 2026-05-01 13:12 | 47.84373 | 35.38873 | 2967 ft | 149 kts | 243° |
| 2026-05-01 13:13 | 47.83935 | 35.37484 | 2925 ft | 150 kts | 244° |
| 2026-05-01 13:13 | 47.83485 | 35.36084 | 2902 ft | 149 kts | 244° |
| 2026-05-01 13:13 | 47.83043 | 35.34692 | 2903 ft | 147 kts | 245° |
| 2026-05-01 13:13 | 47.82616 | 35.33323 | 2913 ft | 145 kts | 245° |
| 2026-05-01 13:14 | 47.82205 | 35.31993 | 3003 ft | 130 kts | 245° |
| 2026-05-01 13:14 | 47.81856 | 35.30861 | 2988 ft | 116 kts | 245° |
| 2026-05-01 13:14 | 47.81529 | 35.29795 | 2872 ft | 113 kts | 246° |
| 2026-05-01 13:14 | 47.81517 | 35.29756 | 2862 ft | 114 kts | 246° |
| 2026-05-01 13:15 | 47.81462 | 35.29556 | 2804 ft | 117 kts | 249° |
| 2026-05-01 13:15 | 47.81405 | 35.28484 | 2558 ft | 122 kts | 286° |
| 2026-05-01 13:15 | 47.81622 | 35.28037 | 2398 ft | 127 kts | 324° |
| 2026-05-01 13:16 | 47.82485 | 35.28205 | 1826 ft | 146 kts | 37° |
| 2026-05-01 13:16 | 47.82999 | 35.28841 | 1410 ft | 149 kts | 39° |
| 2026-05-01 13:17 | 47.85330 | 35.30666 | 476 ft | 119 kts | 23° |
| 2026-05-01 13:17 | 47.86029 | 35.31101 | 384 ft | 99 kts | 20° |
| 2026-05-01 13:18 | 47.87176 | 35.31792 | 384 ft | 81 kts | 22° |
| 2026-05-01 13:18 | 47.87671 | 35.32124 | 384 ft | 74 kts | 38° |
| 2026-05-01 13:18 | 47.88121 | 35.32279 | 384 ft | 61 kts | 338° |
| 2026-05-01 13:18 | 47.88316 | 35.31923 | 384 ft | 36 kts | 255° |
| 2026-05-01 13:19 | 47.88161 | 35.31796 | 384 ft | 23 kts | 152° |
| 2026-05-01 13:19 | 47.88033 | 35.31867 | 384 ft | 20 kts | 193° |
| 2026-05-01 13:19 | 47.87806 | 35.32001 | 384 ft | 15 kts | 120° |
| 2026-05-01 13:20 | 47.87767 | 35.32129 | 384 ft | 15 kts | 107° |
| 2026-05-01 13:20 | 47.87701 | 35.32299 | 384 ft | 20 kts | 131° |
| 2026-05-01 13:20 | 47.87546 | 35.32305 | 384 ft | 21 kts | 203° |
| 2026-05-01 13:21 | 47.87124 | 35.32190 | 384 ft | 35 kts | 188° |
| 2026-05-01 13:21 | 47.86844 | 35.32066 | 384 ft | 47 kts | 198° |
| 2026-05-01 13:21 | 47.86502 | 35.32039 | 384 ft | 0 kts | 163° |
| 2026-05-01 13:21 | 47.86430 | 35.32091 | 384 ft | 17 kts | 151° |
| 2026-05-01 13:22 | 47.86248 | 35.31659 | 384 ft | 0 kts | 187° |
| 2026-05-01 13:22 | 47.86225 | 35.31692 | 384 ft | 8 kts | 84° |
| 2026-05-01 13:22 | 47.86249 | 35.31699 | 384 ft | 5 kts | 320° |
| 2026-05-01 13:22 | 47.86272 | 35.31600 | 384 ft | 6 kts | 282° |
| 2026-05-01 13:23 | 47.86276 | 35.31575 | 384 ft | 0 kts | 280° |
| 2026-05-01 13:23 | 47.86251 | 35.31540 | 384 ft | 0 kts | 144° |
| 2026-05-01 13:23 | 47.86241 | 35.31573 | 384 ft | 8 kts | 105° |
| 2026-05-01 13:23 | 47.86259 | 35.31678 | 384 ft | 11 kts | 295° |
| 2026-05-01 13:24 | 47.86253 | 35.31622 | 384 ft | 1 kts | 187° |
| 2026-05-01 13:24 | 47.86217 | 35.31662 | 384 ft | 0 kts | 305° |
| 2026-05-01 13:24 | 47.86220 | 35.31654 | 384 ft | 0 kts | 289° |
| 2026-05-01 13:25 | 47.86216 | 35.31672 | 384 ft | 5 kts | 286° |
| 2026-05-01 13:25 | 47.86219 | 35.31655 | 384 ft | 4 kts | 290° |
| 2026-05-01 13:25 | 47.86234 | 35.31577 | 384 ft | 14 kts | 274° |
| 2026-05-01 13:25 | 47.86196 | 35.31562 | 384 ft | 4 kts | 152° |
| 2026-05-01 13:26 | 47.86176 | 35.31644 | 384 ft | 10 kts | 326° |
| 2026-05-01 13:26 | 47.86195 | 35.31607 | 384 ft | 0 kts | 286° |
| 2026-05-01 13:26 | 47.86180 | 35.31640 | 384 ft | 0 kts | 288° |
| 2026-05-01 13:26 | 47.86183 | 35.31627 | 384 ft | 0 kts | 288° |